• Join FlightAware (Why Join?)
  • Login
  • US Flag 
10:43AM EDT


 

Airport Tracker/Info


-or-


 

Live Flight TrackerFlight Track Log ✈ SWA253 ✈ 11-May-2013 ✈ KMCO - KALB

Flight Track Log - Related Links

Times and Time Zones

All times are in EDT time to prevent confusion due to time zone crossing. See the SWA253 flight status page for this flight to view local times or setup timezone preferences in your user account.

Time Position Orientation Groundspeed Altitude Reporting Facility
EDT Latitude Longitude Course Direction KTS MPH feet Rate Location/Type
07:01PM 28.4000 -81.3000 North 169 194 700  Level Orlando TRACON
07:02PM 28.3667 -81.2667 139° Southeast 223 257 2,100 2,100 Climbing Orlando TRACON
07:03PM 28.3167 -81.2167 139° Southeast 253 291 4,800 3,000 Climbing Orlando TRACON
07:04PM 28.3333 -81.1500 74° East 253 291 7,900 2,640 Climbing Orlando TRACON
07:06PM 28.4017 -81.0472 53° Northeast 292 336 11,400 2,460 Climbing Jacksonville Center
07:07PM 29.1086 -81.3833 North  Level FlightAware Approximate
07:07PM 28.4836 -81.0789 341° North 246 283 14,300  Level Jacksonville Center
07:08PM 28.5739 -81.1244 336° Northwest 304 350 16,800 2,340 Climbing Jacksonville Center
07:09PM 28.6683 -81.1725 336° Northwest 329 379 19,000 2,340 Climbing Jacksonville Center
07:10PM 28.7672 -81.2228 336° Northwest 362 417 21,500 2,460 Climbing Jacksonville Center
07:11PM 28.8681 -81.2756 335° Northwest 385 443 24,000 2,100 Climbing Jacksonville Center
07:12PM 28.9689 -81.3261 336° Northwest 390 449 25,800 960 Climbing Jacksonville Center
07:13PM 29.0739 -81.3792 336° Northwest 401 461 26,000 60 Climbing Jacksonville Center
07:14PM 29.1911 -81.4011 351° North 414 476 26,000 480 Level Jacksonville Center
07:15PM 29.3100 -81.4114 356° North 414 476 27,000 480 Climbing Jacksonville Center
07:16PM 29.4231 -81.4239 354° North 419 482 27,000  Level Jacksonville Center
07:17PM 29.5422 -81.4342 356° North 419 482 27,000  Level Jacksonville Center
07:18PM 29.6611 -81.4467 355° North 419 482 27,000  Level Jacksonville Center
07:19PM 29.7783 -81.4569 356° North 425 489 27,000  Level Jacksonville Center
07:20PM 29.8975 -81.4694 355° North 425 489 27,000  Level Jacksonville Center
07:21PM 30.0144 -81.4844 354° North 425 489 27,000  Level Jacksonville Center
07:22PM 30.1294 -81.5069 350° North 425 489 27,000  Level Jacksonville Center
07:23PM 30.2406 -81.5292 350° North 420 483 27,000  Level Jacksonville Center
07:24PM 30.3556 -81.5492 351° North 410 472 27,000  Level Jacksonville Center
07:25PM 30.4808 -81.5619 355° North 410 472 27,000  Level Jacksonville Center
07:26PM 30.5956 -81.5364 11° North 410 472 27,000  Level Jacksonville Center
07:27PM 30.7142 -81.5106 11° North 415 478 27,000  Level Jacksonville Center
07:28PM 30.8308 -81.4869 10° North 415 478 27,000  Level Jacksonville Center
07:29PM 30.9475 -81.4611 11° North 421 484 27,000  Level Jacksonville Center
07:30PM 31.0642 -81.4300 13° North 427 491 27,000  Level Jacksonville Center
07:31PM 31.1739 -81.3700 25° Northeast 427 491 27,000  Level Jacksonville Center
07:32PM 31.2861 -81.3125 24° Northeast 432 497 27,000  Level Jacksonville Center
07:33PM 31.3856 -81.2547 26° Northeast 437 503 27,000  Level Jacksonville Center
07:34PM 31.5058 -81.1894 25° Northeast 437 503 27,000  Level Jacksonville Center
07:35PM 31.6053 -81.1364 24° Northeast 437 503 27,000  Level Jacksonville Center
07:36PM 31.7275 -81.0703 25° Northeast 437 503 27,000  Level Jacksonville Center
07:37PM 31.8353 -81.0119 25° Northeast 437 503 27,000  Level Jacksonville Center
07:38PM 31.9347 -80.9586 24° Northeast 437 503 27,000  Level Jacksonville Center
07:39PM 32.0567 -80.8900 25° Northeast 432 497 27,000  Level Jacksonville Center
07:40PM 32.1561 -80.8361 25° Northeast 432 497 27,000  Level Jacksonville Center
07:41PM 32.2761 -80.7697 25° Northeast 438 504 27,000  Level Jacksonville Center
07:42PM 32.3753 -80.7131 26° Northeast 438 504 27,000  Level Jacksonville Center
07:43PM 32.4869 -80.6539 24° Northeast 438 504 27,000  Level Jacksonville Center
07:44PM 32.5986 -80.5894 26° Northeast 438 504 27,000  Level Jacksonville Center
07:45PM 32.7081 -80.5275 25° Northeast 438 504 27,000  Level Jacksonville Center
07:46PM 32.8156 -80.4678 25° Northeast 438 504 27,000  Level Jacksonville Center
07:47PM 32.9250 -80.4078 25° Northeast 438 504 27,000  Level Jacksonville Center
07:48PM 33.0425 -80.3403 26° Northeast 421 484 27,000  Level Jacksonville Center
07:49PM 33.1519 -80.2800 25° Northeast 423 487 27,000  Level Jacksonville Center
07:50PM 33.2489 -80.2250 25° Northeast 430 495 27,000  Level Jacksonville Center
07:51PM 33.3561 -80.1647 25° Northeast 425 489 27,000  Level Jacksonville Center
07:52PM 33.4633 -80.1017 26° Northeast 420 483 27,000  Level Jacksonville Center
07:53PM 33.5706 -80.0408 25° Northeast 420 483 27,000  Level Jacksonville Center
07:54PM 33.6775 -79.9775 26° Northeast 420 483 27,000  Level Jacksonville Center
07:55PM 33.7847 -79.9164 25° Northeast 420 483 27,000  Level Jacksonville Center
07:56PM 33.8917 -79.8528 26° Northeast 420 483 27,000  Level Jacksonville Center
07:57PM 34.0008 -79.7939 24° Northeast 420 483 27,000  Level Jacksonville Center
07:58PM 34.1097 -79.7300 26° Northeast 420 483 27,000  Level Jacksonville Center
07:59PM 34.2167 -79.6658 26° Northeast 420 483 27,000  Level Jacksonville Center
08:00PM 34.3319 -79.6036 24° Northeast 420 483 27,000  Level Jacksonville Center
08:01PM 34.4253 -79.5597 21° North 422 486 27,000  Level Washington Center
08:02PM 34.5356 -79.4997 24° Northeast 428 493 27,000  Level Washington Center
08:02PM 34.6481 -79.4419 23° Northeast 428 493 27,000  Level Washington Center
08:03PM 34.7586 -79.3839 23° Northeast 428 493 27,000  Level Washington Center
08:04PM 34.8689 -79.3233 24° Northeast 422 486 27,000  Level Washington Center
08:05PM 34.9792 -79.2650 23° Northeast 422 486 27,000  Level Washington Center
08:06PM 35.0936 -79.2067 23° Northeast 422 486 27,000 120 Level Washington Center
08:07PM 35.2061 -79.1458 24° Northeast 422 486 27,300 4,980 Climbing Washington Center
08:08PM 35.3247 -79.0822 24° Northeast 439 505 37,000 1,320 Climbing Washington Center
08:10PM 35.4539 -79.0164 23° Northeast 467 537 30,000 -2,700 Descending Washington Center
08:11PM 35.5833 -78.9453 24° Northeast 488 562 31,600 1,680 Climbing Washington Center
08:11PM 35.7147 -78.8742 24° Northeast 499 574 33,400 1,740 Climbing Washington Center
08:13PM 35.8439 -78.8028 24° Northeast 504 580 35,100 1,440 Climbing Washington Center
08:14PM 35.9633 -78.7075 33° Northeast 504 580 36,400 960 Climbing Washington Center
08:14PM 36.0828 -78.6042 35° Northeast 515 593 37,000 300 Climbing Washington Center
08:15PM 36.2128 -78.4881 36° Northeast 520 598 37,000  Level Washington Center
08:16PM 36.3322 -78.3817 36° Northeast 525 604 37,000  Level Washington Center
08:17PM 36.4494 -78.2747 36° Northeast 525 604 37,000  Level Washington Center
08:18PM 36.5667 -78.1678 36° Northeast 525 604 37,000  Level Washington Center
08:19PM 36.6794 -78.0600 37° Northeast 520 598 37,000  Level Washington Center
08:21PM 36.7942 -77.9547 36° Northeast 515 593 37,000  Level Washington Center
08:21PM 36.9067 -77.8517 36° Northeast 510 587 37,000  Level Washington Center
08:22PM 37.0214 -77.7431 37° Northeast 510 587 37,000  Level Washington Center
08:23PM 37.1358 -77.6369 36° Northeast 510 587 37,000  Level Washington Center
08:24PM 37.2483 -77.5303 37° Northeast 510 587 37,000  Level Washington Center
08:25PM 37.3625 -77.4261 36° Northeast 510 587 37,000  Level Washington Center
08:26PM 37.4747 -77.3189 37° Northeast 505 581 37,000  Level Washington Center
08:27PM 37.5908 -77.2089 37° Northeast 510 587 37,000  Level Washington Center
08:28PM 37.6903 -77.1139 37° Northeast 510 587 37,000  Level Washington Center
08:29PM 37.8019 -77.0058 37° Northeast 510 587 37,000  Level Washington Center
08:31PM 37.9158 -76.9000 36° Northeast 510 587 37,000  Level Washington Center
08:32PM 38.0275 -76.7911 38° Northeast 510 587 37,000  Level Washington Center
08:32PM 38.1369 -76.6819 38° Northeast 505 581 37,000  Level Washington Center
08:33PM 38.2611 -76.5622 37° Northeast 505 581 37,000  Level Washington Center
08:34PM 38.3703 -76.4578 37° Northeast 505 581 37,000  Level Washington Center
08:35PM 38.4814 -76.3503 37° Northeast 505 581 37,000  Level Washington Center
08:36PM 38.5925 -76.2397 38° Northeast 505 581 37,000  Level Washington Center
08:38PM 38.6975 -76.1317 39° Northeast 518 596 37,000  Level Washington Center
08:38PM 38.8125 -76.0258 36° Northeast 518 596 37,000  Level Washington Center
08:39PM 38.9233 -75.9172 37° Northeast 513 590 37,000  Level Washington Center
08:40PM 39.0339 -75.8028 39° Northeast 507 583 37,000  Level Washington Center
08:41PM 39.1447 -75.6906 38° Northeast 507 583 37,000  Level Washington Center
08:42PM 39.2572 -75.5808 37° Northeast 507 583 37,000  Level Washington Center
08:43PM 39.3675 -75.4681 38° Northeast 507 583 37,000  Level Washington Center
08:45PM 39.4778 -75.3578 38° Northeast 507 583 37,000  Level Washington Center
08:45PM 39.5881 -75.2469 38° Northeast 507 583 37,000  Level Washington Center
08:47PM 39.7753 -75.0519 39° Northeast 511 588 37,000  Level New York Center
08:48PM 39.8817 -74.9367 40° Northeast 511 588 37,000  Level New York Center
08:49PM 39.9986 -74.8111 39° Northeast 500 575 37,000  Level New York Center
08:50PM 40.0986 -74.6867 44° Northeast 500 575 37,000 -300 Level New York Center
08:51PM 40.2025 -74.5675 41° Northeast 500 575 36,400 -1,440 Descending New York Center
08:52PM 40.2958 -74.4500 44° Northeast 500 575 34,100 -2,280 Descending New York Center
08:53PM 40.4017 -74.3303 41° Northeast 500 575 31,900 -2,160 Descending New York Center
08:56PM 40.6978 -73.9758 42° Northeast 432 497 25,700 -2,040 Descending Boston Center
08:57PM 40.7889 -73.8656 42° Northeast 431 496 24,000 -900 Descending Boston Center
08:58PM 40.8756 -73.7631 42° Northeast 413 475 24,000  Level Boston Center
08:59PM 40.9517 -73.6631 45° Northeast 413 475 24,000 -240 Level Boston Center
09:00PM 41.0528 -73.5603 37° Northeast 413 475 23,600 -660 Descending Boston Center
09:01PM 41.1633 -73.5483 North 405 466 22,700 -960 Descending Boston Center
09:02PM 41.2633 -73.5447 North 416 479 21,700 -1,020 Descending Boston Center
09:03PM 41.3697 -73.5436 360° North 396 456 20,700 -1,020 Descending Boston Center
09:04PM 41.4739 -73.5400 North 378 435 19,700 -1,140 Descending Boston Center
09:05PM 41.5822 -73.5475 357° North 368 423 18,500 -1,680 Descending Boston Center
09:06PM 41.6819 -73.5686 351° North 352 405 16,400 -1,800 Descending Boston Center
09:07PM 41.7672 -73.5897 350° North 352 405 15,000 -1,560 Descending Boston Center
09:08PM 41.8733 -73.6111 351° North 352 405 13,300 -1,560 Descending Boston Center
09:09PM 41.9564 -73.6294 351° North 344 396 11,900 -1,260 Descending Boston Center
09:10PM 41.9981 -73.6386 351° North 330 380 11,600 -900 Descending Boston Center
09:10PM 42.0542 -73.6508 351° North 328 377 11,000 -540 Descending Boston Center
09:11PM 42.1000 -73.6628 349° North 321 369 11,000  Level Boston Center
09:11PM 42.1436 -73.6722 351° North 328 377 11,000  Level Boston Center
09:12PM 42.1894 -73.6814 352° North 319 367 11,000  Level Boston Center
09:12PM 42.2331 -73.6936 348° North 328 377 11,000  Level Boston Center
09:13PM 42.2767 -73.7000 354° North 323 372 11,000 -300 Level Boston Center
09:13PM 42.3203 -73.7092 351° North 323 372 10,700 -1,020 Descending Boston Center
09:14PM 42.3619 -73.7297 340° North 309 356 10,000 -1,320 Descending Boston Center
09:15PM 42.4344 -73.7650 340° North 276 318 8,700 -1,200 Descending Boston Center
09:16PM 42.5031 -73.7806 351° North 229 264 7,600 -1,140 Descending Boston Center
09:17PM 42.5528 -73.7986 345° North 150 173 6,500 -1,440 Descending Boston Center
09:18PM 42.5944 -73.7994 359° North 148 170 4,800 -1,680 Descending Boston Center
09:19PM 42.6381 -73.8003 359° North 159 183 3,200 -1,500 Descending Boston Center
09:20PM 42.6758 -73.7983 North 133 153 1,800 -1,200 Descending Boston Center
09:21PM 42.7089 -73.8075 348° North 122 140 900 -900 Descending Boston Center